Cedaredge, CO

9:56 AM MST on March 01, 2015 (GMT -0700)
Walker | Change Station
CLOSE
Current Station
Airport
Location: Grand Junction,
Elevation: 4856 ft
Nearby Weather Stations
Active Advisory: Winter Storm Warning

Elev 4856 ft 39.13 °N, 108.54 °W | Updated 1 hour ago

Overcast
Overcast
35 °F
Feels Like 29 °F
N
8
Wind Variable Wind from SE

Today
High -- | Low -- °F
--% Chance of Precip.
Yesterday
High -- | Low -- °F
Precip. -- in
6:44 AM 6:04 PM
Waxing Gibbous, 86% visible
Pressure 30.11 in
Visibility 10.0 miles
Clouds Clear
Windchill 29 °F
Dew Point 31 °F
Humidity 85%
Rainfall 0.00 in
Snow Depth Not available.
UV 2 out of 12
Pollen 1.80 out of 12
Air Quality Not available.
Flu Activity Not available.
METAR KGJT 011553Z 14007KT 10SM CLR 02/M01 A3008 RMK AO2 SLP195 T00171006

More Conditions Fewer Conditions

Pressure 30.11 in
Visibility 10.0 miles
Clouds Clear
Windchill 29 °F
Dew Point 31 °F
Humidity 85%
Rainfall 0.00 in
Snow Depth Not available.
UV 2 out of 12
Pollen 1.80 out of 12
Air Quality Not available.
Flu Activity Not available.
METAR KGJT 011553Z 14007KT 10SM CLR 02/M01 A3008 RMK AO2 SLP195 T00171006

More Conditions Fewer Conditions

10-Day Weather Forecast

Almanac

Astronomy

Mar. 01, 2015 Rise Set
Actual Time
Civil Twilight
Nautical Twilight
Astronomical Twilight
Moon
Length of Visible Light
Length of Day
Tomorrow will be .
, % of the Moon is Illuminated

Today's Extremes

State Highs State Lows

Community

WunderPhotos

Upload Photos

1,801,451 photos uploaded!

WunderBlogs® & News

Nearby

Air Quality

  Air Quality AQ Index Pollutant
Not available.

Snow Depth

Station Depth Elevation

Earthquake Activity

City Distance Mag. Time & Date
Minimum magnitude displayed is 2.5.

Coastal Water Temperatures

Place Temperature

Nearby Weather Stations

Winter Storm Warning
Statement as of 5:49 AM MST on March 01, 2015

... Winter Storm Warning remains in effect until 5 PM MST Tuesday
above 7000 feet...

* locations include the cities of... Skyway... Crested Butte...
Marble.

* Timing... periods of snow will continue through Monday
evening... though there will also be lulls in the activity.
The best periods for significant snowfall will be tonight
through Monday evening.

* Snow accumulation... 1 to 2 feet through Monday... lesser
amounts on north facing slopes.

* Snow level... the highest accumulations will occur above 7000
feet.

* Winds... southwest 15 to 25 mph with higher gusts at times.

* Visibility... restricted at times in snow and blowing snow.

* Impacts... travel will be impaired into Tuesday... especially
over the Grand Mesa and the Dallas Divide.

Precautionary/preparedness actions...

A Winter Storm Warning means significant amounts of snow are
expected or occurring. Strong winds and blowing snow are also
possible. This will make travel very hazardous or impossible.